Time;durP1;ratioP1;P1;durP2;ratioP2;P2;SDS_P1;SDS_P2;PMS_P1;PMS_P2;Temp;Humidity;BMP_temperature;BMP_pressure;BME280_temperature;BME280_humidity;BME280_pressure;Samples;Min_cycle;Max_cycle;Signal;HPM_P1;HPM_P2
2022/02/17 00:00:32;;;;;;;0.65;0.50;;;;;;;-145.06;0.00;60892.56;4838071;28;20034;-86
2022/02/17 00:03:11;;;;;;;0.40;0.30;;;;;;;-145.06;0.00;60892.56;4829944;28;20034;-86
2022/02/17 00:05:50;;;;;;;0.43;0.32;;;;;;;-145.06;0.00;60892.56;4834624;28;20042;-86
2022/02/17 00:08:30;;;;;;;0.82;0.30;;;;;;;-145.06;0.00;60892.56;4831429;28;20038;-87
2022/02/17 00:11:09;;;;;;;1.48;0.40;;;;;;;13.93;0.00;60892.56;4831288;28;20483;-86
2022/02/17 00:13:48;;;;;;;0.30;0.30;;;;;;;-145.06;0.00;60892.56;4829941;28;20447;-87
2022/02/17 00:16:27;;;;;;;0.40;0.40;;;;;;;15.88;0.00;60892.56;4836560;28;20034;-86
2022/02/17 00:19:06;;;;;;;0.83;0.30;;;;;;;-145.06;0.00;60892.56;4837700;28;20033;-86
2022/02/17 00:21:45;;;;;;;0.55;0.40;;;;;;;13.65;0.00;60892.56;4837489;28;20472;-87
2022/02/17 00:24:24;;;;;;;2.15;0.40;;;;;;;-145.06;0.00;60892.56;4833630;28;20070;-84
2022/02/17 00:27:04;;;;;;;1.47;0.50;;;;;;;-145.06;0.00;60892.56;4849725;28;20030;-87
2022/02/17 00:29:43;;;;;;;0.63;0.43;;;;;;;-145.06;0.00;60892.56;4840965;28;20265;-88
2022/02/17 00:32:22;;;;;;;0.55;0.45;;;;;;;-145.06;0.00;60892.56;4836027;28;20046;-87
2022/02/17 00:35:01;;;;;;;1.03;0.60;;;;;;;-145.06;0.00;60892.56;4836321;28;20034;-84
2022/02/17 00:37:40;;;;;;;1.33;0.40;;;;;;;-145.06;0.00;60892.56;4830487;28;20034;-85
2022/02/17 00:40:19;;;;;;;2.65;0.63;;;;;;;-145.06;0.00;60892.56;4836925;28;20037;-88
2022/02/17 00:42:58;;;;;;;3.28;0.65;;;;;;;-145.06;0.00;60892.56;4835753;28;20491;-86
2022/02/17 00:45:37;;;;;;;2.33;0.63;;;;;;;13.57;0.00;60892.56;4844699;28;20384;-88
2022/02/17 00:48:16;;;;;;;1.53;0.60;;;;;;;-145.06;0.00;60892.56;4835045;28;20041;-85
2022/02/17 00:50:54;;;;;;;0.60;0.30;;;;;;;-145.06;0.00;60892.56;4823774;28;20053;-87
2022/02/17 00:53:33;;;;;;;1.27;0.50;;;;;;;-145.06;0.00;60892.56;4833890;28;20030;-86
2022/02/17 00:56:13;;;;;;;1.48;0.70;;;;;;;-145.06;0.00;60892.56;4831620;28;20261;-86
2022/02/17 00:58:52;;;;;;;1.23;0.50;;;;;;;-145.06;0.00;60892.56;4846538;28;20038;-87
2022/02/17 01:01:31;;;;;;;2.20;0.43;;;;;;;14.58;0.00;60892.56;4831750;28;20472;-86
2022/02/17 01:04:11;;;;;;;2.63;0.83;;;;;;;15.88;0.00;60892.56;4835698;28;20365;-87
2022/02/17 01:06:50;;;;;;;2.53;0.90;;;;;;;-145.06;0.00;60892.56;4834236;28;20065;-87
2022/02/17 01:09:29;;;;;;;2.03;0.60;;;;;;;-145.06;0.00;60892.56;4844309;28;20041;-85
2022/02/17 01:12:09;;;;;;;3.67;0.97;;;;;;;-145.06;0.00;60892.56;4832286;28;20030;-87
2022/02/17 01:14:48;;;;;;;4.55;1.20;;;;;;;-145.06;0.00;60892.56;4827294;28;20062;-87
2022/02/17 01:17:27;;;;;;;4.40;0.90;;;;;;;-145.06;0.00;60892.56;4832983;28;20034;-87
2022/02/17 01:20:06;;;;;;;4.97;1.20;;;;;;;-145.06;0.00;60892.56;4835843;28;20313;-86
2022/02/17 01:22:45;;;;;;;4.15;1.50;;;;;;;-145.06;0.00;60892.56;4830188;28;20037;-87
2022/02/17 01:25:25;;;;;;;4.67;1.30;;;;;;;-145.06;0.00;60892.56;4823086;28;20042;-88
2022/02/17 01:28:04;;;;;;;3.97;1.60;;;;;;;-145.06;0.00;60892.56;4840471;28;20315;-85
2022/02/17 01:30:43;;;;;;;8.30;2.17;;;;;;;21.08;0.00;60892.56;4835934;28;20034;-87
2022/02/17 01:33:22;;;;;;;5.03;1.45;;;;;;;-145.06;0.00;60892.56;4825087;28;20030;-87
2022/02/17 01:36:06;;;;;;;5.67;1.80;;;;;;;-145.06;0.00;60892.56;4840568;28;20069;-87
2022/02/17 01:38:45;;;;;;;4.50;1.67;;;;;;;-145.06;0.00;60892.56;4833583;28;20273;-88
2022/02/17 01:41:24;;;;;;;5.87;1.60;;;;;;;-145.06;0.00;60892.56;4835465;28;20788;-88
2022/02/17 01:44:03;;;;;;;4.47;1.52;;;;;;;-145.06;0.00;60892.56;4840594;28;20112;-88
2022/02/17 01:46:42;;;;;;;5.47;1.67;;;;;;;-145.06;0.00;60892.56;4830387;28;20038;-86
2022/02/17 01:49:22;;;;;;;5.13;1.50;;;;;;;-145.06;0.00;60892.56;4829910;28;20042;-86
2022/02/17 01:52:01;;;;;;;9.13;2.53;;;;;;;13.25;0.00;60892.56;4838378;28;20037;-89
2022/02/17 01:54:44;;;;;;;6.10;2.13;;;;;;;-145.06;0.00;60892.56;4840903;28;20034;-86
2022/02/17 01:57:25;;;;;;;8.07;2.30;;;;;;;-145.06;0.00;60892.56;4839070;28;20743;-87
2022/02/17 02:00:05;;;;;;;10.23;2.42;;;;;;;-145.06;0.00;60892.56;4842243;28;20034;-88
2022/02/17 02:02:46;;;;;;;6.60;1.90;;;;;;;-145.06;0.00;60892.56;4843971;28;20042;-87
2022/02/17 02:05:25;;;;;;;8.32;2.10;;;;;;;-145.06;0.00;60892.56;4842768;28;20034;-88
2022/02/17 02:08:04;;;;;;;11.95;2.80;;;;;;;13.07;0.00;60892.56;4844362;28;20033;-87
2022/02/17 02:10:44;;;;;;;10.25;2.67;;;;;;;13.00;0.00;60892.56;4839726;28;20038;-88
2022/02/17 02:13:23;;;;;;;11.85;2.67;;;;;;;-145.06;0.00;60892.56;4834721;28;20034;-86
2022/02/17 02:16:02;;;;;;;6.43;2.17;;;;;;;12.88;0.00;60892.56;4852978;28;20029;-86
2022/02/17 02:18:41;;;;;;;14.07;3.15;;;;;;;-145.06;0.00;60892.56;4840383;28;20476;-85
2022/02/17 02:21:22;;;;;;;8.82;2.50;;;;;;;-145.06;0.00;60892.56;4839051;28;20038;-87
2022/02/17 02:24:01;;;;;;;9.02;2.70;;;;;;;-145.06;0.00;60892.56;4836967;28;20038;-86
2022/02/17 02:26:40;;;;;;;13.17;2.80;;;;;;;-145.06;0.00;60892.56;4835262;28;20037;-88
2022/02/17 02:29:19;;;;;;;10.60;2.90;;;;;;;-145.06;0.00;60892.56;4834476;28;20550;-88
2022/02/17 02:31:58;;;;;;;11.48;3.05;;;;;;;-145.06;0.00;60892.56;4839148;28;20531;-88
2022/02/17 02:34:37;;;;;;;13.27;3.20;;;;;;;-145.06;0.00;60892.56;4836532;28;20033;-88
2022/02/17 02:37:16;;;;;;;10.57;2.97;;;;;;;-145.06;0.00;60892.56;4832457;28;20276;-88
2022/02/17 02:39:55;;;;;;;14.52;3.42;;;;;;;-145.06;0.00;60892.56;4835549;28;20125;-88
2022/02/17 02:42:34;;;;;;;16.57;3.73;;;;;;;-145.06;0.00;60892.56;4835106;28;20030;-88
2022/02/17 02:45:13;;;;;;;10.60;3.10;;;;;;;-145.06;0.00;60892.56;4855355;28;20496;-88
2022/02/17 02:47:53;;;;;;;9.15;2.83;;;;;;;-145.06;0.00;60892.56;4838625;28;20413;-88
2022/02/17 02:50:32;;;;;;;10.52;3.08;;;;;;;-145.06;0.00;60892.56;4836733;28;20030;-89
2022/02/17 02:53:15;;;;;;;10.80;3.15;;;;;;;-145.06;0.00;60892.56;4837600;28;20064;-89
2022/02/17 02:55:53;;;;;;;13.88;2.90;;;;;;;-145.06;0.00;60892.56;4852403;28;20030;-88
2022/02/17 02:58:32;;;;;;;12.77;3.17;;;;;;;-145.06;0.00;60892.56;4830432;28;20515;-90
2022/02/17 03:01:11;;;;;;;14.73;3.92;;;;;;;-145.06;0.00;60892.56;4838327;28;20269;-87
2022/02/17 03:03:50;;;;;;;14.93;3.53;;;;;;;-145.06;0.00;60892.56;4825120;28;20034;-89
2022/02/17 03:06:29;;;;;;;13.23;3.63;;;;;;;-145.06;0.00;60892.56;4839276;28;20037;-89
2022/02/17 03:09:08;;;;;;;15.25;4.20;;;;;;;-145.06;0.00;60892.56;4841492;28;20041;-89
2022/02/17 03:11:47;;;;;;;12.23;3.73;;;;;;;-145.06;0.00;60892.56;4841886;28;20026;-89
2022/02/17 03:14:26;;;;;;;9.85;2.85;;;;;;;15.88;0.00;60892.56;4837258;28;20038;-88
2022/02/17 03:17:05;;;;;;;15.30;4.22;;;;;;;-145.06;0.00;60892.56;4835620;28;20112;-88
2022/02/17 03:19:45;;;;;;;12.88;3.50;;;;;;;12.18;0.00;60892.56;4838660;28;20037;-88
2022/02/17 03:22:25;;;;;;;12.25;3.40;;;;;;;-145.06;0.00;60892.56;4839188;28;20116;-89
2022/02/17 03:25:09;;;;;;;15.43;3.67;;;;;;;-145.06;0.00;60892.56;4836200;28;20041;-89
2022/02/17 03:27:48;;;;;;;12.02;3.60;;;;;;;-145.06;0.00;60892.56;4838197;28;20038;-89
2022/02/17 03:30:27;;;;;;;14.55;4.00;;;;;;;-145.06;0.00;60892.56;4836676;28;20029;-88
2022/02/17 03:33:06;;;;;;;17.00;3.87;;;;;;;-145.06;0.00;60892.56;4836861;28;20037;-87
2022/02/17 03:35:47;;;;;;;14.63;3.93;;;;;;;11.98;0.00;60892.56;4835076;28;20045;-89
2022/02/17 03:38:26;;;;;;;13.77;3.92;;;;;;;11.94;0.00;60892.56;4832064;28;20033;-88
2022/02/17 03:41:05;;;;;;;13.55;3.58;;;;;;;-145.06;0.00;60892.56;4839361;28;20030;-87
2022/02/17 03:43:44;;;;;;;14.82;3.67;;;;;;;-145.06;0.00;60892.56;4834723;28;20384;-89
2022/02/17 03:46:23;;;;;;;18.60;4.50;;;;;;;-145.06;0.00;60892.56;4845018;28;20064;-89
2022/02/17 03:49:02;;;;;;;8.60;3.42;;;;;;;15.88;0.00;60892.56;4847040;28;20383;-88
2022/02/17 03:51:41;;;;;;;12.00;3.47;;;;;;;-145.06;0.00;60892.56;4824289;28;20038;-90
2022/02/17 03:54:21;;;;;;;16.97;4.23;;;;;;;13.28;0.00;60892.56;4851654;28;20045;-89
2022/02/17 03:57:00;;;;;;;;;;;;;;;11.76;0.00;60892.56;4838013;28;20281;-87
2022/02/17 03:59:39;;;;;;;13.07;3.72;;;;;;;-145.06;0.00;60892.56;4838080;28;20428;-89
2022/02/17 04:02:18;;;;;;;22.47;4.90;;;;;;;11.68;0.00;60892.56;4841085;28;20034;-89
2022/02/17 04:04:57;;;;;;;11.27;3.60;;;;;;;-145.06;0.00;60892.56;4851103;28;20041;-89
2022/02/17 04:07:39;;;;;;;17.70;3.35;;;;;;;-145.06;0.00;60892.56;4833194;28;20042;-89
2022/02/17 04:10:18;;;;;;;16.48;3.60;;;;;;;-145.06;0.00;60892.56;4837272;28;20022;-88
2022/02/17 04:12:57;;;;;;;13.43;3.63;;;;;;;-145.06;0.00;60892.56;4832582;28;20069;-89
2022/02/17 04:15:36;;;;;;;10.90;2.97;;;;;;;-145.06;0.00;60892.56;4842488;28;20526;-89
2022/02/17 04:18:14;;;;;;;19.93;4.50;;;;;;;-145.06;0.00;60892.56;4839429;28;20100;-90
2022/02/17 04:20:55;;;;;;;15.17;3.87;;;;;;;187.52;0.00;60892.56;4838646;28;20273;-89
2022/02/17 04:23:35;;;;;;;10.80;3.22;;;;;;;-145.06;0.00;60892.56;4827232;28;20029;-88
2022/02/17 04:26:16;;;;;;;14.05;3.78;;;;;;;-145.06;0.00;60892.56;4858628;28;20033;-89
2022/02/17 04:28:58;;;;;;;13.35;4.00;;;;;;;-145.06;0.00;60892.56;4855113;28;20030;-89
2022/02/17 04:31:38;;;;;;;17.60;4.55;;;;;;;-145.06;0.00;60892.56;4837518;28;20053;-88
2022/02/17 04:34:17;;;;;;;19.33;3.85;;;;;;;-145.06;0.00;60892.56;4850918;28;20045;-88
2022/02/17 04:36:55;;;;;;;18.90;4.57;;;;;;;-145.06;0.00;60892.56;4841964;28;20504;-88
2022/02/17 04:39:34;;;;;;;16.53;3.80;;;;;;;-145.06;0.00;60892.56;4838548;28;20108;-89
2022/02/17 04:42:19;;;;;;;12.97;3.90;;;;;;;-145.06;0.00;60892.56;4834820;28;20285;-89
2022/02/17 04:44:59;;;;;;;18.25;4.00;;;;;;;-145.06;0.00;60892.56;4839753;28;20257;-90
2022/02/17 04:47:37;;;;;;;15.40;3.67;;;;;;;11.98;0.00;60892.56;4848961;28;20033;-88
2022/02/17 04:50:16;;;;;;;14.02;3.90;;;;;;;-145.06;0.00;60892.56;4839398;28;20033;-89
2022/02/17 04:52:55;;;;;;;18.70;4.35;;;;;;;-145.06;0.00;60892.56;4836876;28;20038;-87
2022/02/17 04:55:34;;;;;;;14.43;3.63;;;;;;;-145.06;0.00;60892.56;4836403;28;20037;-89
2022/02/17 04:58:14;;;;;;;15.35;4.38;;;;;;;11.66;0.00;60892.56;4844282;28;20034;-89
2022/02/17 05:00:52;;;;;;;13.30;3.55;;;;;;;-145.06;0.00;60892.56;4838781;28;20029;-89
2022/02/17 05:03:32;;;;;;;11.15;3.17;;;;;;;-145.06;0.00;60892.56;4838748;28;20112;-87
2022/02/17 05:06:11;;;;;;;19.60;4.78;;;;;;;-145.06;0.00;60892.56;4836806;28;20038;-86
2022/02/17 05:08:50;;;;;;;15.27;3.93;;;;;;;-145.06;0.00;60892.56;4838127;28;20026;-89
2022/02/17 05:11:29;;;;;;;16.73;4.40;;;;;;;-145.06;0.00;60892.56;4835152;28;20062;-89
2022/02/17 05:14:08;;;;;;;17.70;3.97;;;;;;;-145.06;0.00;60892.56;4835936;28;20277;-90
2022/02/17 05:16:47;;;;;;;14.40;4.17;;;;;;;-145.06;0.00;60892.56;4841690;28;20034;-89
2022/02/17 05:19:26;;;;;;;18.60;4.47;;;;;;;-145.06;0.00;60892.56;4821554;28;20273;-89
2022/02/17 05:22:05;;;;;;;16.20;4.70;;;;;;;-145.06;0.00;60892.56;4833620;28;20273;-90
2022/02/17 05:24:44;;;;;;;17.37;4.80;;;;;;;-145.06;0.00;60892.56;4833056;28;20758;-89
2022/02/17 05:27:23;;;;;;;19.10;4.77;;;;;;;-145.06;0.00;60892.56;4831560;28;20041;-90
2022/02/17 05:30:02;;;;;;;14.45;4.10;;;;;;;-145.06;0.00;60892.56;4851425;28;20857;-89
2022/02/17 05:32:42;;;;;;;;;;;;;;;-145.06;0.00;60892.56;4849944;28;20482;-87
2022/02/17 05:35:22;;;;;;;16.95;4.22;;;;;;;-145.06;0.00;60892.56;4851628;28;19917;-88
2022/02/17 05:38:02;;;;;;;13.70;4.05;;;;;;;-145.06;0.00;60892.56;4836943;28;20385;-89
2022/02/17 05:40:40;;;;;;;17.02;4.28;;;;;;;-145.06;0.00;60892.56;4836964;28;20105;-88
2022/02/17 05:43:19;;;;;;;12.63;3.70;;;;;;;15.88;0.00;60892.56;4831369;28;20046;-89
2022/02/17 05:45:58;;;;;;;17.38;4.22;;;;;;;-145.06;0.00;60892.56;4827658;28;20468;-88
2022/02/17 05:48:37;;;;;;;21.85;4.82;;;;;;;-145.06;0.00;60892.56;4831429;28;20132;-87
2022/02/17 05:51:18;;;;;;;20.13;4.75;;;;;;;-145.06;0.00;60892.56;4838708;28;20033;-87
2022/02/17 05:53:56;;;;;;;;;;;;;;;-145.06;0.00;60892.56;4841163;28;20041;-88
2022/02/17 05:56:35;;;;;;;18.80;3.95;;;;;;;-145.06;0.00;60892.56;4837323;28;20493;-87
2022/02/17 05:59:14;;;;;;;21.00;5.07;;;;;;;-145.06;0.00;60892.56;4846780;28;20112;-87
2022/02/17 06:01:53;;;;;;;22.35;5.35;;;;;;;-145.06;0.00;60892.56;4838018;28;20061;-87
2022/02/17 06:04:32;;;;;;;23.37;5.47;;;;;;;-145.06;0.00;60892.56;4835522;28;20033;-87
2022/02/17 06:07:13;;;;;;;22.50;5.13;;;;;;;-145.06;0.00;60892.56;4843013;28;20299;-88
2022/02/17 06:09:52;;;;;;;22.55;5.10;;;;;;;-145.06;0.00;60892.56;4833606;28;20113;-87
2022/02/17 06:12:31;;;;;;;17.80;4.77;;;;;;;-145.06;0.00;60892.56;4835809;28;20034;-88
2022/02/17 06:15:11;;;;;;;16.63;5.03;;;;;;;-145.06;0.00;60892.56;4842579;28;20356;-88
2022/02/17 06:17:50;;;;;;;23.15;5.00;;;;;;;-145.06;0.00;60892.56;4833798;28;20112;-87
2022/02/17 06:20:29;;;;;;;22.50;5.37;;;;;;;-145.06;0.00;60892.56;4822939;28;20026;-87
2022/02/17 06:23:08;;;;;;;24.08;5.90;;;;;;;-145.06;0.00;60892.56;4833067;28;20324;-85
2022/02/17 06:25:47;;;;;;;15.73;3.97;;;;;;;-145.06;0.00;60892.56;4833921;28;20029;-86
2022/02/17 06:28:27;;;;;;;16.55;4.95;;;;;;;-145.06;0.00;60892.56;4843309;28;20037;-86
2022/02/17 06:31:06;;;;;;;19.35;5.40;;;;;;;10.24;0.00;60892.56;4836128;28;20038;-89
2022/02/17 06:33:45;;;;;;;22.15;5.20;;;;;;;10.21;0.00;60892.56;4834524;28;20042;-88
2022/02/17 06:36:24;;;;;;;20.70;5.37;;;;;;;10.19;0.00;60892.56;4853730;28;20026;-87
2022/02/17 06:39:04;;;;;;;18.77;4.90;;;;;;;-145.06;0.00;60892.56;4838205;28;20273;-87
2022/02/17 06:41:43;;;;;;;;;;;;;;;-145.06;0.00;60892.56;4826412;28;20031;-86
2022/02/17 06:44:22;;;;;;;20.80;4.83;;;;;;;10.13;0.00;60892.56;4836123;28;19914;-87
2022/02/17 06:47:01;;;;;;;19.73;4.90;;;;;;;10.11;0.00;60892.56;4826509;28;20061;-86
2022/02/17 06:49:40;;;;;;;19.87;4.57;;;;;;;-145.06;0.00;60892.56;4840820;28;20033;-87
2022/02/17 06:52:19;;;;;;;24.73;5.17;;;;;;;10.08;0.00;60892.56;4839545;28;20421;-87
2022/02/17 06:54:59;;;;;;;21.27;5.70;;;;;;;10.07;0.00;60892.56;4848528;28;20034;-87
2022/02/17 06:57:39;;;;;;;18.75;5.32;;;;;;;10.11;0.00;60892.56;4835277;28;20762;-87
2022/02/17 07:00:18;;;;;;;26.00;5.40;;;;;;;-145.06;0.00;60892.56;4840759;28;20038;-87
2022/02/17 07:02:57;;;;;;;22.88;5.47;;;;;;;10.06;0.00;60892.56;4837040;28;20042;-87
2022/02/17 07:05:37;;;;;;;24.98;5.68;;;;;;;10.07;0.00;60892.56;4830546;28;20042;-86
2022/02/17 07:08:17;;;;;;;21.13;4.78;;;;;;;-145.06;0.00;60892.56;4839487;28;20113;-84
2022/02/17 07:10:56;;;;;;;24.88;5.97;;;;;;;10.11;0.00;60892.56;4838926;28;20124;-87
2022/02/17 07:13:35;;;;;;;19.27;4.53;;;;;;;-145.06;0.00;60892.56;4836351;28;20479;-87
2022/02/17 07:16:14;;;;;;;21.87;5.03;;;;;;;10.11;0.00;60892.56;4837869;28;20025;-88
2022/02/17 07:18:53;;;;;;;23.50;5.30;;;;;;;-145.06;0.00;60892.56;4835861;28;20026;-87
2022/02/17 07:21:32;;;;;;;23.95;5.30;;;;;;;-145.06;0.00;60892.56;4830546;28;20064;-88
2022/02/17 07:24:11;;;;;;;21.08;4.80;;;;;;;-145.06;0.00;60892.56;4843430;28;20038;-88
2022/02/17 07:26:50;;;;;;;19.15;4.50;;;;;;;-145.06;0.00;60892.56;4837464;28;20360;-87
2022/02/17 07:29:30;;;;;;;18.08;4.82;;;;;;;-145.06;0.00;60892.56;4837714;28;20480;-87
2022/02/17 07:32:10;;;;;;;;;;;;;;;-145.06;0.00;60892.56;4841019;28;20029;-88
2022/02/17 07:34:49;;;;;;;19.70;4.70;;;;;;;-145.06;0.00;60892.56;4838812;28;20000;-87
2022/02/17 07:37:28;;;;;;;23.98;5.38;;;;;;;-145.06;0.00;60892.56;4838702;28;20133;-87
2022/02/17 07:40:09;;;;;;;17.57;4.67;;;;;;;-145.06;0.00;60892.56;4841799;28;20046;-86
2022/02/17 07:42:48;;;;;;;20.48;4.90;;;;;;;-145.06;0.00;60892.56;4837073;28;20265;-87
2022/02/17 07:45:27;;;;;;;18.20;5.05;;;;;;;-145.06;0.00;60892.56;4834140;28;20038;-87
2022/02/17 07:48:06;;;;;;;21.67;4.93;;;;;;;-145.06;0.00;60892.56;4829463;28;20026;-88
2022/02/17 07:50:45;;;;;;;18.67;4.00;;;;;;;-145.06;0.00;60892.56;4833845;28;20030;-87
2022/02/17 07:53:24;;;;;;;14.82;3.92;;;;;;;-145.06;0.00;60892.56;4861315;28;20412;-87
2022/02/17 07:56:05;;;;;;;11.93;3.70;;;;;;;-145.06;0.00;60892.56;4836960;28;20030;-87
2022/02/17 07:58:44;;;;;;;18.67;4.57;;;;;;;-145.06;0.00;60892.56;4851060;28;20042;-86
2022/02/17 08:01:23;;;;;;;17.38;3.70;;;;;;;-145.06;0.00;60892.56;4841502;28;20030;-88
2022/02/17 08:04:02;;;;;;;31.02;5.13;;;;;;;-145.06;0.00;60892.56;4835746;28;20037;-87
2022/02/17 08:06:43;;;;;;;23.35;5.13;;;;;;;187.52;0.00;60892.56;4832967;28;20038;-88
2022/02/17 08:09:22;;;;;;;15.40;4.35;;;;;;;-145.06;0.00;60892.56;4837838;28;20030;-88
2022/02/17 08:12:01;;;;;;;14.25;3.45;;;;;;;-145.06;0.00;60892.56;4828669;28;20069;-87
2022/02/17 08:14:41;;;;;;;13.95;3.75;;;;;;;-145.06;0.00;60892.56;4844446;28;20061;-87
2022/02/17 08:17:20;;;;;;;;;;;;;;;-145.06;0.00;60892.56;4836453;28;20038;-88
2022/02/17 08:19:59;;;;;;;14.47;3.37;;;;;;;-145.06;0.00;60892.56;4833612;28;19913;-87
2022/02/17 08:22:46;;;;;;;12.70;3.33;;;;;;;-145.06;0.00;60892.56;4834518;28;20260;-89
2022/02/17 08:25:26;;;;;;;15.82;3.92;;;;;;;-145.06;0.00;60892.56;4835054;28;20073;-88
2022/02/17 08:28:05;;;;;;;19.70;4.37;;;;;;;-145.06;0.00;60892.56;4839866;28;20069;-88
2022/02/17 08:30:44;;;;;;;20.92;4.30;;;;;;;-145.06;0.00;60892.56;4830600;28;20679;-88
2022/02/17 08:33:22;;;;;;;17.37;4.63;;;;;;;-145.06;0.00;60892.56;4844496;28;20038;-88
2022/02/17 08:36:01;;;;;;;16.70;3.67;;;;;;;-145.06;0.00;60892.56;4825024;28;20026;-88
2022/02/17 08:38:41;;;;;;;19.23;4.05;;;;;;;-145.06;0.00;60892.56;4828779;28;20037;-87
2022/02/17 08:41:20;;;;;;;17.55;4.28;;;;;;;-145.06;0.00;60892.56;4837741;28;20483;-89
2022/02/17 08:43:59;;;;;;;10.18;3.38;;;;;;;-145.06;0.00;60892.56;4831428;28;20030;-88
2022/02/17 08:46:38;;;;;;;21.67;4.90;;;;;;;-145.06;0.00;60892.56;4844988;28;20042;-89
2022/02/17 08:49:17;;;;;;;17.63;4.73;;;;;;;-145.06;0.00;60892.56;4835704;28;20033;-90
2022/02/17 08:51:56;;;;;;;15.87;4.00;;;;;;;-145.06;0.00;60892.56;4843149;28;20575;-89
2022/02/17 08:54:35;;;;;;;20.20;4.55;;;;;;;187.52;0.00;60892.56;4846247;28;20347;-90
2022/02/17 08:57:14;;;;;;;27.88;5.43;;;;;;;-145.06;0.00;60892.56;4830642;28;20038;-90
2022/02/17 08:59:53;;;;;;;17.70;4.77;;;;;;;10.49;0.00;60892.56;4825851;28;20033;-90
2022/02/17 09:02:32;;;;;;;15.60;4.70;;;;;;;10.51;0.00;60892.56;4836782;28;20121;-88
2022/02/17 09:05:11;;;;;;;19.45;4.68;;;;;;;10.56;0.00;60892.56;4824940;28;20273;-87
2022/02/17 09:07:51;;;;;;;21.55;4.50;;;;;;;-145.06;0.00;60892.56;4824611;28;20026;-89
2022/02/17 09:10:30;;;;;;;20.50;4.35;;;;;;;187.52;0.00;60892.56;4837053;28;20034;-89
2022/02/17 09:13:09;;;;;;;14.13;3.80;;;;;;;10.56;0.00;60892.56;4836452;28;20631;-89
2022/02/17 09:15:48;;;;;;;11.47;3.23;;;;;;;-145.06;0.00;60892.56;4829521;28;20030;-89
2022/02/17 09:18:27;;;;;;;16.33;4.35;;;;;;;10.58;0.00;60892.56;4836850;28;20280;-90
2022/02/17 09:21:06;;;;;;;13.32;3.75;;;;;;;10.58;0.00;60892.56;4834656;28;20125;-90
2022/02/17 09:23:46;;;;;;;15.20;3.83;;;;;;;-145.06;0.00;60892.56;4834353;28;20526;-90
2022/02/17 09:26:26;;;;;;;13.90;3.75;;;;;;;10.62;0.00;60892.56;4852414;28;20065;-90
2022/02/17 09:29:08;;;;;;;;;;;;;;;10.65;0.00;60892.56;4836297;28;20037;-90
2022/02/17 09:31:47;;;;;;;15.68;3.72;;;;;;;-145.06;0.00;60892.56;4849829;28;19917;-89
2022/02/17 09:34:26;;;;;;;12.85;3.67;;;;;;;-145.06;0.00;60892.56;4837338;28;20109;-90
2022/02/17 09:37:05;;;;;;;14.30;4.30;;;;;;;-145.06;0.00;60892.56;4848322;28;20064;-90
2022/02/17 09:39:44;;;;;;;25.03;5.40;;;;;;;-145.06;0.00;60892.56;4837912;28;20288;-90
2022/02/17 09:42:24;;;;;;;;;;;;;;;-145.06;0.00;60892.56;4834456;28;20042;-91
2022/02/17 09:45:05;;;;;;;21.40;5.13;;;;;;;-145.06;0.00;60892.56;4854930;28;19917;-89
2022/02/17 09:47:44;;;;;;;17.85;4.88;;;;;;;-145.06;0.00;60892.56;4850179;28;20033;-88
2022/02/17 09:50:23;;;;;;;14.55;3.47;;;;;;;-145.06;0.00;60892.56;4834634;28;20539;-90
2022/02/17 09:53:02;;;;;;;10.33;2.90;;;;;;;-145.06;0.00;60892.56;4836849;28;20117;-89
2022/02/17 09:55:42;;;;;;;15.85;3.92;;;;;;;-145.06;0.00;60892.56;4820750;28;20109;-87
2022/02/17 09:58:21;;;;;;;15.80;3.67;;;;;;;11.33;0.00;60892.56;4848490;28;20483;-89
2022/02/17 10:01:00;;;;;;;15.57;3.97;;;;;;;-145.06;0.00;60892.56;4846057;28;20034;-89
2022/02/17 10:03:40;;;;;;;11.90;3.50;;;;;;;-145.06;0.00;60892.56;4836295;28;20026;-90
2022/02/17 10:06:20;;;;;;;;;;;;;;;-145.06;0.00;60892.56;4830741;28;20305;-89
2022/02/17 10:09:07;;;;;;;15.90;4.13;;;;;;;-145.06;0.00;60892.56;4834516;28;21622;-90
2022/02/17 10:11:48;;;;;;;11.15;3.47;;;;;;;-145.06;0.00;60892.56;4834261;28;20057;-90
2022/02/17 10:14:27;;;;;;;13.38;3.30;;;;;;;-145.06;0.00;60892.56;4854905;28;20077;-89
2022/02/17 10:17:09;;;;;;;10.68;3.42;;;;;;;-145.06;0.00;60892.56;4828535;28;20065;-90
2022/02/17 10:19:50;;;;;;;11.23;3.25;;;;;;;-145.06;0.00;60892.56;4836046;28;20041;-91
2022/02/17 10:22:34;;;;;;;15.45;3.63;;;;;;;-145.06;0.00;60892.56;4836074;28;20050;-91
2022/02/17 10:25:19;;;;;;;13.88;3.90;;;;;;;-145.06;0.00;60892.56;4842816;28;20045;-90
2022/02/17 10:28:11;;;;;;;11.93;3.17;;;;;;;-145.06;0.00;60892.56;4825557;28;20033;-90
2022/02/17 10:30:50;;;;;;;13.57;3.22;;;;;;;-145.06;0.00;60892.56;4835070;28;20113;-90
2022/02/17 10:33:41;;;;;;;15.43;3.70;;;;;;;-145.06;0.00;60892.56;4829966;28;20137;-89
2022/02/17 10:36:34;;;;;;;9.85;2.53;;;;;;;-145.06;0.00;60892.56;4842567;28;20387;-91
2022/02/17 10:39:19;;;;;;;10.75;3.80;;;;;;;-145.06;0.00;60892.56;4846118;28;20037;-89
2022/02/17 10:42:03;;;;;;;11.52;2.90;;;;;;;-145.06;0.00;60892.56;4840852;28;20179;-90
2022/02/17 10:44:45;;;;;;;9.48;2.40;;;;;;;-145.06;0.00;60892.56;4839963;28;20042;-89
2022/02/17 10:47:25;;;;;;;7.95;2.28;;;;;;;-145.06;0.00;60892.56;4836072;28;20503;-90
2022/02/17 10:50:04;;;;;;;8.25;2.20;;;;;;;-145.06;0.00;60892.56;4846440;28;20030;-88
2022/02/17 10:52:48;;;;;;;9.43;2.50;;;;;;;-145.06;0.00;60892.56;4838372;28;20034;-89
2022/02/17 10:55:27;;;;;;;9.30;2.20;;;;;;;-145.06;0.00;60892.56;4838222;28;20571;-90
2022/02/17 10:58:19;;;;;;;12.05;2.63;;;;;;;11.62;0.00;60892.56;4834124;28;20128;-90
2022/02/17 11:01:00;;;;;;;8.95;2.47;;;;;;;-145.06;0.00;60892.56;4861805;28;20033;-90
2022/02/17 11:03:40;;;;;;;10.13;2.78;;;;;;;-145.06;0.00;60892.56;4839263;28;20065;-89
2022/02/17 11:06:21;;;;;;;11.20;2.72;;;;;;;11.69;0.00;60892.56;4842786;28;20066;-90
2022/02/17 11:09:00;;;;;;;11.57;2.40;;;;;;;-145.06;0.00;60892.56;4852063;28;20076;-90
2022/02/17 11:11:40;;;;;;;12.77;2.77;;;;;;;11.82;0.00;60892.56;4839567;28;20053;-89
2022/02/17 11:14:39;;;;;;;16.45;3.20;;;;;;;11.71;0.00;60892.56;4837042;28;20273;-88
2022/02/17 11:17:18;;;;;;;9.50;3.00;;;;;;;-145.06;0.00;60892.56;4834669;28;20038;-89
2022/02/17 11:19:57;;;;;;;9.88;2.78;;;;;;;-145.06;0.00;60892.56;4847411;28;20285;-90
2022/02/17 11:22:40;;;;;;;8.35;2.65;;;;;;;-145.06;0.00;60892.56;4870993;28;20038;-89
2022/02/17 11:25:34;;;;;;;9.00;2.42;;;;;;;-145.06;0.00;60892.56;4846381;28;20039;-91
2022/02/17 11:28:17;;;;;;;8.57;2.70;;;;;;;-145.06;0.00;60892.56;4851460;28;20122;-90
2022/02/17 11:30:59;;;;;;;7.35;2.08;;;;;;;-145.06;0.00;60892.56;4830591;28;20027;-90
2022/02/17 11:33:41;;;;;;;6.05;1.90;;;;;;;-145.06;0.00;60892.56;4851946;28;20037;-91
2022/02/17 11:36:25;;;;;;;6.88;1.75;;;;;;;-145.06;0.00;60892.56;4830872;28;20033;-89
2022/02/17 11:39:06;;;;;;;6.25;2.20;;;;;;;-145.06;0.00;60892.56;4838014;28;20021;-89
2022/02/17 11:41:46;;;;;;;9.02;2.00;;;;;;;-145.06;0.00;60892.56;4837044;28;20033;-89
2022/02/17 11:44:25;;;;;;;7.72;2.22;;;;;;;-145.06;0.00;60892.56;4838292;28;20038;-88
2022/02/17 11:47:06;;;;;;;12.93;3.27;;;;;;;-145.06;0.00;60892.56;4843557;28;20081;-89
2022/02/17 11:49:47;;;;;;;10.40;2.90;;;;;;;-145.06;0.00;60892.56;4844892;28;20476;-90
2022/02/17 11:52:26;;;;;;;8.05;3.40;;;;;;;-145.06;0.00;60892.56;4822658;28;20031;-90
2022/02/17 11:55:16;;;;;;;6.00;2.78;;;;;;;-145.06;0.00;60892.56;4822781;28;20069;-90
2022/02/17 11:57:56;;;;;;;10.43;3.05;;;;;;;-145.06;0.00;60892.56;4827027;28;20120;-90
2022/02/17 12:00:36;;;;;;;10.90;3.35;;;;;;;-145.06;0.00;60892.56;4829022;28;20030;-88
2022/02/17 12:03:55;;;;;;;7.90;2.05;;;;;;;-145.06;0.00;60892.56;4846359;28;20104;-89
2022/02/17 12:06:49;;;;;;;6.50;2.42;;;;;;;-145.06;0.00;60892.56;4837028;28;20026;-89
2022/02/17 12:09:29;;;;;;;9.05;2.10;;;;;;;-145.06;0.00;60892.56;4831760;28;20073;-87
2022/02/17 12:12:24;;;;;;;4.07;1.52;;;;;;;-145.06;0.00;60892.56;4844855;28;20022;-87
2022/02/17 12:15:07;;;;;;;3.75;1.30;;;;;;;-145.06;0.00;60892.56;4834287;28;20033;-87
2022/02/17 12:17:46;;;;;;;6.25;1.77;;;;;;;-145.06;0.00;60892.56;4838473;28;20038;-88
2022/02/17 12:20:28;;;;;;;7.10;2.00;;;;;;;-145.06;0.00;60892.56;4838881;28;20033;-87
2022/02/17 12:23:08;;;;;;;6.55;2.00;;;;;;;-145.06;0.00;60892.56;4828302;28;20492;-87